Terminal Aerodrome Forecast
Issued by NWS

Home | Current Version | Previous Version | Text Only | Print | Product List | Glossary On
Versions: 1 2 3 4 5 6 7 8 9 10 11 12 13 14
000
FTUS43 KICT 252140 AAA
TAFCNU
TAF AMD
KCNU 252140Z 2522/2618 18023G32KT P6SM BKN250
     FM260100 18017G23KT P6SM BKN250
     FM260700 19013KT P6SM BKN250
     FM261300 19009KT 6SM BR SCT009 BKN015=

USA.gov is the U.S. government's official web portal to all federal, state and local government web resources and services.